Time;durP1;ratioP1;P1;durP2;ratioP2;P2;SDS_P1;SDS_P2;PMS_P1;PMS_P2;Temp;Humidity;BMP_temperature;BMP_pressure;BME280_temperature;BME280_humidity;BME280_pressure;Samples;Min_cycle;Max_cycle;Signal;HPM_P1;HPM_P2
2022/05/19 00:01:14;;;;;;;8.57;2.63;;;15.00;99.90;;;;;;5005688;28;20080;-79
2022/05/19 00:03:40;;;;;;;7.72;2.85;;;15.00;99.90;;;;;;5011044;28;20045;-78
2022/05/19 00:06:10;;;;;;;5.75;2.67;;;15.00;99.90;;;;;;5007623;28;20032;-79
2022/05/19 00:08:36;;;;;;;6.53;2.47;;;15.00;99.90;;;;;;5008224;28;20062;-78
2022/05/19 00:11:06;;;;;;;6.93;2.63;;;15.00;99.90;;;;;;5029864;28;20041;-76
2022/05/19 00:13:32;;;;;;;7.55;3.00;;;15.00;99.90;;;;;;5004569;28;20041;-77
2022/05/19 00:15:59;;;;;;;8.05;3.10;;;15.00;99.90;;;;;;5007597;28;20511;-79
2022/05/19 00:18:25;;;;;;;7.65;3.10;;;15.00;99.90;;;;;;5009464;28;20033;-79
2022/05/19 00:20:51;;;;;;;8.93;2.95;;;15.00;99.90;;;;;;5008616;28;20459;-77
2022/05/19 00:23:17;;;;;;;6.72;3.05;;;15.00;99.90;;;;;;5010476;28;20026;-77
2022/05/19 00:25:43;;;;;;;6.88;2.50;;;15.00;99.90;;;;;;5009910;28;20200;-78
2022/05/19 00:28:09;;;;;;;7.78;3.00;;;15.00;99.90;;;;;;5010897;28;20387;-79
2022/05/19 00:30:36;;;;;;;6.22;3.35;;;15.00;99.90;;;;;;5009044;28;20021;-77
2022/05/19 00:33:02;;;;;;;7.20;3.25;;;15.00;99.90;;;;;;5000927;28;20137;-77
2022/05/19 00:35:28;;;;;;;9.38;3.17;;;15.00;99.90;;;;;;5010941;28;20038;-78
2022/05/19 00:37:54;;;;;;;8.25;3.50;;;15.00;99.90;;;;;;5010320;28;20040;-76
2022/05/19 00:40:22;;;;;;;7.93;2.97;;;15.00;99.90;;;;;;5010140;28;20060;-77
2022/05/19 00:42:47;;;;;;;6.82;3.45;;;15.00;99.90;;;;;;5009740;28;20034;-76
2022/05/19 00:45:17;;;;;;;7.63;3.10;;;15.00;99.90;;;;;;5009676;28;20030;-77
2022/05/19 00:47:49;;;;;;;10.00;4.70;;;15.00;99.90;;;;;;4999470;28;20023;-78
2022/05/19 00:50:23;;;;;;;10.60;3.60;;;15.00;99.90;;;;;;5008236;28;20045;-76
2022/05/19 00:52:53;;;;;;;9.68;3.92;;;15.00;99.90;;;;;;5042478;28;20076;-78
2022/05/19 00:55:26;;;;;;;10.20;4.15;;;15.00;99.90;;;;;;5010901;28;20045;-77
2022/05/19 00:58:00;;;;;;;9.75;3.40;;;15.00;99.90;;;;;;5010409;28;20029;-75
2022/05/19 01:00:27;;;;;;;7.85;3.75;;;15.00;99.90;;;;;;5020007;28;20069;-77
2022/05/19 01:02:58;;;;;;;8.02;3.83;;;15.00;99.90;;;;;;5009346;28;20065;-78
2022/05/19 01:05:47;;;;;;;8.00;3.58;;;15.00;99.90;;;;;;5009465;28;20034;-77
2022/05/19 01:08:24;;;;;;;8.90;4.28;;;15.00;99.90;;;;;;5009233;28;20034;-77
2022/05/19 01:10:51;;;;;;;8.27;3.60;;;14.90;99.90;;;;;;5041971;28;20050;-77
2022/05/19 01:13:17;;;;;;;7.43;3.65;;;14.90;99.90;;;;;;5009911;28;20034;-76
2022/05/19 01:15:50;;;;;;;6.20;2.80;;;14.90;99.90;;;;;;5008763;28;20041;-77
2022/05/19 01:18:17;;;;;;;6.18;3.05;;;14.90;99.90;;;;;;5007777;28;20045;-75
2022/05/19 01:20:45;;;;;;;7.53;2.90;;;14.90;99.90;;;;;;5023533;28;20176;-76
2022/05/19 01:23:28;;;;;;;7.50;3.25;;;14.90;99.90;;;;;;4999647;28;20049;-76
2022/05/19 01:26:08;;;;;;;5.75;3.08;;;14.90;99.90;;;;;;5000588;28;20116;-74
2022/05/19 01:28:34;;;;;;;10.25;3.63;;;14.90;99.90;;;;;;5024684;28;20499;-76
2022/05/19 01:31:00;;;;;;;7.13;3.55;;;14.90;99.90;;;;;;5010203;28;20038;-77
2022/05/19 01:33:25;;;;;;;6.82;2.65;;;14.90;99.90;;;;;;5008328;28;20022;-77
2022/05/19 01:35:54;;;;;;;9.65;3.80;;;14.90;99.90;;;;;;5008842;28;20038;-75
2022/05/19 01:38:32;;;;;;;7.22;3.42;;;14.90;99.90;;;;;;5009718;28;20037;-76
2022/05/19 01:41:19;;;;;;;13.38;4.50;;;14.80;99.90;;;;;;5010564;28;20033;-76
2022/05/19 01:44:06;;;;;;;8.40;3.95;;;14.80;99.90;;;;;;5007127;28;20037;-76
2022/05/19 01:46:34;;;;;;;6.80;3.78;;;14.80;99.90;;;;;;5024668;28;20038;-78
2022/05/19 01:49:36;;;;;;;8.50;4.22;;;14.80;99.90;;;;;;5003330;28;20389;-78
2022/05/19 01:52:07;;;;;;;10.48;5.28;;;14.70;99.90;;;;;;5009854;28;20459;-76
2022/05/19 01:54:45;;;;;;;13.82;5.72;;;14.70;99.90;;;;;;5008131;28;20033;-77
2022/05/19 01:57:13;;;;;;;7.53;3.53;;;14.70;99.90;;;;;;5008747;28;20041;-76
2022/05/19 01:59:55;;;;;;;8.73;4.32;;;14.70;99.90;;;;;;5039848;28;20108;-77
2022/05/19 02:02:39;;;;;;;8.77;4.30;;;14.70;99.90;;;;;;5006751;28;20553;-77
2022/05/19 02:05:13;;;;;;;8.30;4.72;;;14.70;99.90;;;;;;5006810;28;20493;-77
2022/05/19 02:07:41;;;;;;;8.68;4.32;;;14.70;99.90;;;;;;5037367;28;20038;-77
2022/05/19 02:10:18;;;;;;;8.88;4.30;;;14.80;99.90;;;;;;5006178;28;20038;-77
2022/05/19 02:12:45;;;;;;;6.35;4.18;;;14.70;99.90;;;;;;5005152;28;20065;-76
2022/05/19 02:15:13;;;;;;;10.35;4.80;;;14.80;99.90;;;;;;5013399;28;20037;-79
2022/05/19 02:17:42;;;;;;;10.25;4.82;;;14.80;99.90;;;;;;5011376;28;20439;-76
2022/05/19 02:20:11;;;;;;;9.50;4.65;;;14.80;99.90;;;;;;5005178;28;20034;-75
2022/05/19 02:22:40;;;;;;;8.80;4.10;;;14.80;99.90;;;;;;5040955;28;20108;-76
2022/05/19 02:25:30;;;;;;;9.57;4.50;;;14.80;99.90;;;;;;5008418;28;20042;-76
2022/05/19 02:28:08;;;;;;;10.50;4.35;;;14.80;99.90;;;;;;5006096;28;20089;-75
2022/05/19 02:30:37;;;;;;;9.20;5.28;;;14.70;99.90;;;;;;5007456;28;20034;-76
2022/05/19 02:33:03;;;;;;;6.85;3.70;;;14.70;99.90;;;;;;5011224;28;20061;-77
2022/05/19 02:35:29;;;;;;;9.27;4.63;;;14.70;99.90;;;;;;5007829;28;20033;-77
2022/05/19 02:37:56;;;;;;;8.50;5.07;;;14.70;99.90;;;;;;5004678;28;20025;-75
2022/05/19 02:40:25;;;;;;;7.43;3.88;;;14.70;99.90;;;;;;5022094;28;20037;-76
2022/05/19 02:42:51;;;;;;;8.00;4.93;;;14.70;99.90;;;;;;4996103;28;20034;-77
2022/05/19 02:45:20;;;;;;;9.57;5.40;;;14.70;99.90;;;;;;5007269;28;20041;-77
2022/05/19 02:47:47;;;;;;;9.88;5.55;;;14.60;99.90;;;;;;5006158;28;20061;-76
2022/05/19 02:50:14;;;;;;;12.93;7.32;;;14.60;99.90;;;;;;5007827;28;20057;-77
2022/05/19 02:52:39;;;;;;;9.60;6.20;;;14.60;99.90;;;;;;5006868;28;20141;-77
2022/05/19 02:55:06;;;;;;;9.05;5.50;;;14.60;99.90;;;;;;5002426;28;20094;-77
2022/05/19 02:57:32;;;;;;;14.98;7.97;;;14.50;99.90;;;;;;5014378;28;20045;-77
2022/05/19 02:59:58;;;;;;;9.38;6.43;;;14.50;99.90;;;;;;5004475;28;20045;-75
2022/05/19 03:02:24;;;;;;;9.10;6.18;;;14.50;99.90;;;;;;5007380;28;20660;-76
2022/05/19 03:04:50;;;;;;;9.65;5.82;;;14.50;99.90;;;;;;5017268;28;20077;-76
2022/05/19 03:07:15;;;;;;;11.93;6.13;;;14.60;99.90;;;;;;4999640;28;20060;-77
2022/05/19 03:09:42;;;;;;;11.75;6.53;;;14.50;99.90;;;;;;5007582;28;20543;-76
2022/05/19 03:12:12;;;;;;;10.57;6.05;;;14.50;99.90;;;;;;5005428;28;20044;-78
2022/05/19 03:14:39;;;;;;;9.63;5.25;;;14.50;99.90;;;;;;5006890;28;20033;-78
2022/05/19 03:17:07;;;;;;;7.75;4.05;;;14.60;99.90;;;;;;5007501;28;20042;-78
2022/05/19 03:19:33;;;;;;;9.80;5.22;;;14.50;99.90;;;;;;5006367;28;20057;-76
2022/05/19 03:21:58;;;;;;;7.82;4.85;;;14.50;99.90;;;;;;5005988;28;20064;-75
2022/05/19 03:24:24;;;;;;;12.65;6.35;;;14.50;99.90;;;;;;5021069;28;20475;-76
2022/05/19 03:26:49;;;;;;;8.32;4.93;;;14.50;99.90;;;;;;5005154;28;20080;-77
2022/05/19 03:29:15;;;;;;;11.98;5.43;;;14.50;99.90;;;;;;5005931;28;20057;-78
2022/05/19 03:31:40;;;;;;;13.48;4.72;;;14.50;99.90;;;;;;5007266;28;20037;-76
2022/05/19 03:34:06;;;;;;;19.02;4.65;;;14.50;99.90;;;;;;5006358;28;20037;-76
2022/05/19 03:36:32;;;;;;;25.58;5.50;;;14.60;99.90;;;;;;5007361;28;20033;-76
2022/05/19 03:38:59;;;;;;;19.17;4.68;;;14.50;99.90;;;;;;5007403;28;20030;-76
2022/05/19 03:41:25;;;;;;;16.83;4.13;;;14.60;99.90;;;;;;5007293;28;20514;-75
2022/05/19 03:43:51;;;;;;;17.45;4.95;;;14.60;99.90;;;;;;5007306;28;20041;-77
2022/05/19 03:46:16;;;;;;;17.45;5.22;;;14.60;99.90;;;;;;5004220;28;20065;-77
2022/05/19 03:48:42;;;;;;;16.70;6.13;;;14.50;99.90;;;;;;5009374;28;20026;-76
2022/05/19 03:51:18;;;;;;;15.30;5.95;;;14.60;99.90;;;;;;5011305;28;20037;-75
2022/05/19 03:53:43;;;;;;;17.63;6.03;;;14.60;99.90;;;;;;5026576;28;20057;-76
2022/05/19 03:56:09;;;;;;;16.58;6.13;;;14.60;99.90;;;;;;5010171;28;20116;-76
2022/05/19 03:58:35;;;;;;;18.17;5.93;;;14.50;99.90;;;;;;5011315;28;20065;-76
2022/05/19 04:01:00;;;;;;;16.58;6.88;;;14.50;99.90;;;;;;5042504;28;20120;-76
2022/05/19 04:03:26;;;;;;;20.55;7.15;;;14.50;99.90;;;;;;5010858;28;20034;-77
2022/05/19 04:05:51;;;;;;;19.55;8.27;;;14.40;99.90;;;;;;5007865;28;20464;-76
2022/05/19 04:08:17;;;;;;;23.58;9.20;;;14.40;99.90;;;;;;5009912;28;20022;-76
2022/05/19 04:10:44;;;;;;;15.10;6.95;;;14.30;99.90;;;;;;5010723;28;20080;-74
2022/05/19 04:13:11;;;;;;;22.95;9.10;;;14.30;99.90;;;;;;5011009;28;20053;-77
2022/05/19 04:15:37;;;;;;;14.05;6.88;;;14.30;99.90;;;;;;5009820;28;20030;-76
2022/05/19 04:18:04;;;;;;;10.27;4.95;;;14.30;99.90;;;;;;5008784;28;20045;-78
2022/05/19 04:20:30;;;;;;;11.55;5.90;;;14.30;99.90;;;;;;5010080;28;20030;-77
2022/05/19 04:23:00;;;;;;;14.43;6.45;;;14.20;99.90;;;;;;5004753;28;20377;-76
2022/05/19 04:25:27;;;;;;;16.65;7.38;;;14.30;99.90;;;;;;4997911;28;20030;-78
2022/05/19 04:27:53;;;;;;;17.42;8.02;;;14.30;99.90;;;;;;5038709;28;20057;-77
2022/05/19 04:30:18;;;;;;;15.93;8.43;;;14.30;99.90;;;;;;5009076;28;20480;-77
2022/05/19 04:32:44;;;;;;;19.40;8.27;;;14.30;99.90;;;;;;5006949;28;20384;-74
2022/05/19 04:35:12;;;;;;;17.08;7.90;;;14.30;99.90;;;;;;5007010;28;20041;-76
2022/05/19 04:37:38;;;;;;;17.55;7.55;;;14.40;99.90;;;;;;5010523;28;20131;-74
2022/05/19 04:40:05;;;;;;;20.25;7.05;;;14.40;99.90;;;;;;5009855;28;20057;-79
2022/05/19 04:42:31;;;;;;;22.15;7.45;;;14.40;99.90;;;;;;5010021;28;20092;-77
2022/05/19 04:44:57;;;;;;;17.05;8.02;;;14.40;99.90;;;;;;5023227;28;20706;-75
2022/05/19 04:47:23;;;;;;;15.35;7.72;;;14.40;99.90;;;;;;5008606;28;20080;-75
2022/05/19 04:49:49;;;;;;;16.38;7.05;;;14.40;99.90;;;;;;5010986;28;20042;-75
2022/05/19 04:52:15;;;;;;;15.00;6.43;;;14.40;99.90;;;;;;5008946;28;20033;-76
2022/05/19 04:54:41;;;;;;;21.63;7.65;;;14.40;99.90;;;;;;5007504;28;20044;-75
2022/05/19 04:57:07;;;;;;;15.30;6.05;;;14.40;99.90;;;;;;5010973;28;20719;-75
2022/05/19 04:59:37;;;;;;;14.18;6.13;;;14.40;99.90;;;;;;5005917;28;20026;-75
2022/05/19 05:02:02;;;;;;;;;;;14.40;99.90;;;;;;5025771;28;20112;-76
2022/05/19 05:04:28;;;;;;;15.45;7.50;;;14.40;99.90;;;;;;5008075;28;19967;-75
2022/05/19 05:06:54;;;;;;;17.05;7.85;;;14.40;99.90;;;;;;5008677;28;20061;-75
2022/05/19 05:09:20;;;;;;;17.45;9.48;;;14.40;99.90;;;;;;5003957;28;20499;-74
2022/05/19 05:11:45;;;;;;;20.73;9.18;;;14.40;99.90;;;;;;5006171;28;20034;-75
2022/05/19 05:14:11;;;;;;;23.02;10.82;;;14.40;99.90;;;;;;5007189;28;20041;-76
2022/05/19 05:16:37;;;;;;;22.42;12.23;;;14.40;99.90;;;;;;5008415;28;20476;-75
2022/05/19 05:19:06;;;;;;;26.15;13.35;;;14.40;99.90;;;;;;5008787;28;20038;-77
2022/05/19 05:21:31;;;;;;;24.42;13.63;;;14.40;99.90;;;;;;5009654;28;20037;-74
2022/05/19 05:23:57;;;;;;;26.83;14.98;;;14.40;99.90;;;;;;5006885;28;20034;-75
2022/05/19 05:26:23;;;;;;;29.70;15.88;;;14.50;99.90;;;;;;5007895;28;20073;-75
2022/05/19 05:28:48;;;;;;;32.78;17.02;;;14.40;99.90;;;;;;5005895;28;20421;-75
2022/05/19 05:31:14;;;;;;;25.70;15.90;;;14.40;99.90;;;;;;5005554;28;20041;-74
2022/05/19 05:33:40;;;;;;;33.97;18.48;;;14.40;99.90;;;;;;4994950;28;20329;-75
2022/05/19 05:36:06;;;;;;;30.42;18.95;;;14.40;99.90;;;;;;5007011;28;20034;-76
2022/05/19 05:38:31;;;;;;;26.65;18.08;;;14.50;99.90;;;;;;5009293;28;20022;-76
2022/05/19 05:40:58;;;;;;;28.77;18.67;;;14.50;99.90;;;;;;5009177;28;20030;-75
2022/05/19 05:43:24;;;;;;;25.27;16.95;;;14.50;99.90;;;;;;5039599;28;20048;-74
2022/05/19 05:45:51;;;;;;;27.88;17.65;;;14.50;99.90;;;;;;4994549;28;20416;-77
2022/05/19 05:48:17;;;;;;;25.75;18.02;;;14.50;99.90;;;;;;5007039;28;20404;-77
2022/05/19 05:50:43;;;;;;;27.83;17.90;;;14.50;99.90;;;;;;5006717;28;20034;-76
2022/05/19 05:53:10;;;;;;;27.23;18.77;;;14.50;99.90;;;;;;5005657;28;20527;-75
2022/05/19 05:55:39;;;;;;;25.25;17.45;;;14.50;99.90;;;;;;4996667;28;20366;-76
2022/05/19 05:58:09;;;;;;;25.30;17.20;;;14.50;99.90;;;;;;5007554;28;20558;-77
2022/05/19 06:00:36;;;;;;;22.58;15.05;;;14.50;99.90;;;;;;5005239;28;20089;-78
2022/05/19 06:03:01;;;;;;;25.33;16.88;;;14.50;99.90;;;;;;5027291;28;20125;-77
2022/05/19 06:05:27;;;;;;;25.80;16.90;;;14.50;99.90;;;;;;5009786;28;20539;-76
2022/05/19 06:07:52;;;;;;;22.15;16.63;;;14.50;99.90;;;;;;5005817;28;20036;-77
2022/05/19 06:10:18;;;;;;;22.63;17.23;;;14.50;99.90;;;;;;5003365;28;20029;-76
2022/05/19 06:12:44;;;;;;;26.05;18.88;;;14.50;99.90;;;;;;5009619;28;20040;-77
2022/05/19 06:15:12;;;;;;;23.85;16.58;;;14.50;99.90;;;;;;5002731;28;20183;-77
2022/05/19 06:17:41;;;;;;;23.08;16.67;;;14.50;99.90;;;;;;5003028;28;20030;-77
2022/05/19 06:20:12;;;;;;;28.20;19.38;;;14.50;99.90;;;;;;5002987;28;20018;-77
2022/05/19 06:22:39;;;;;;;26.48;20.17;;;14.50;99.90;;;;;;5007277;28;20026;-77
2022/05/19 06:25:06;;;;;;;24.48;18.90;;;14.50;99.90;;;;;;5006076;28;20037;-77
2022/05/19 06:27:31;;;;;;;21.83;17.13;;;14.50;99.90;;;;;;4997931;28;20050;-78
2022/05/19 06:29:57;;;;;;;22.10;17.38;;;14.60;99.90;;;;;;5003648;28;20041;-76
2022/05/19 06:32:23;;;;;;;28.60;20.17;;;14.60;99.90;;;;;;5008298;28;20039;-76
2022/05/19 06:34:48;;;;;;;23.00;18.33;;;14.70;99.90;;;;;;5023202;28;20038;-76
2022/05/19 06:37:14;;;;;;;23.92;19.30;;;14.70;99.90;;;;;;5009608;28;20109;-76
2022/05/19 06:39:39;;;;;;;22.95;17.40;;;14.70;99.90;;;;;;5003574;28;20117;-76
2022/05/19 06:42:11;;;;;;;23.90;16.98;;;14.70;99.90;;;;;;5031517;28;20180;-76
2022/05/19 06:44:39;;;;;;;21.02;17.63;;;14.70;99.90;;;;;;5008776;28;20030;-77
2022/05/19 06:47:13;;;;;;;20.48;16.58;;;14.60;99.90;;;;;;5006578;28;20030;-78
2022/05/19 06:49:43;;;;;;;20.77;16.73;;;14.60;99.90;;;;;;5029863;28;20030;-77
2022/05/19 06:52:19;;;;;;;20.27;17.02;;;14.50;99.90;;;;;;5002406;28;20037;-77
2022/05/19 06:54:46;;;;;;;21.48;15.48;;;14.50;99.90;;;;;;5007564;28;20042;-77
2022/05/19 06:57:12;;;;;;;23.05;16.92;;;14.50;99.90;;;;;;5005406;28;20376;-78
2022/05/19 06:59:37;;;;;;;22.30;16.55;;;14.50;99.90;;;;;;5001430;28;20038;-76
2022/05/19 07:02:04;;;;;;;19.05;15.60;;;14.40;99.90;;;;;;5000541;28;20128;-77
2022/05/19 07:04:31;;;;;;;17.45;15.43;;;14.40;99.90;;;;;;5004287;28;20770;-76
2022/05/19 07:06:57;;;;;;;20.10;16.00;;;14.40;99.90;;;;;;5004823;28;20053;-76
2022/05/19 07:09:22;;;;;;;28.23;20.25;;;14.40;99.90;;;;;;5001356;28;20033;-76
2022/05/19 07:11:48;;;;;;;32.80;22.13;;;14.40;99.90;;;;;;5002028;28;20815;-78
2022/05/19 07:14:14;;;;;;;22.17;17.52;;;14.40;99.90;;;;;;5005677;28;20107;-75
2022/05/19 07:16:43;;;;;;;30.95;21.20;;;14.40;99.90;;;;;;5000218;28;20393;-76
2022/05/19 07:21:54;;;;;;;25.38;18.98;;;14.30;99.90;;;;;;5004802;28;20044;-78
2022/05/19 07:24:21;;;;;;;20.33;16.67;;;14.30;99.90;;;;;;5000433;28;20396;-82
2022/05/19 07:26:50;;;;;;;25.95;19.08;;;14.30;99.90;;;;;;5003116;28;20050;-81
2022/05/19 07:29:18;;;;;;;24.30;18.13;;;14.30;99.90;;;;;;5000868;28;20057;-72
2022/05/19 07:31:44;;;;;;;22.38;17.90;;;14.30;99.90;;;;;;5003698;28;20033;-73
2022/05/19 07:34:12;;;;;;;26.67;18.83;;;14.30;99.90;;;;;;4993000;28;20080;-73
2022/05/19 07:36:39;;;;;;;25.17;17.65;;;14.40;99.90;;;;;;5003032;28;20441;-75
2022/05/19 07:39:05;;;;;;;24.00;16.85;;;14.40;99.90;;;;;;5005313;28;20093;-73
2022/05/19 07:41:31;;;;;;;23.40;17.40;;;14.40;99.90;;;;;;5013868;28;20037;-73
2022/05/19 07:43:57;;;;;;;24.52;17.83;;;14.50;99.90;;;;;;5006674;28;20084;-73
2022/05/19 07:46:28;;;;;;;23.35;17.48;;;14.50;99.90;;;;;;4998584;28;20050;-73
2022/05/19 07:48:55;;;;;;;22.52;16.83;;;14.50;99.90;;;;;;4996291;28;20035;-74
2022/05/19 07:51:27;;;;;;;20.92;14.68;;;14.50;99.90;;;;;;5005697;28;20083;-73
2022/05/19 07:53:53;;;;;;;20.50;15.13;;;14.50;99.90;;;;;;5013434;28;20034;-72
2022/05/19 07:56:19;;;;;;;20.13;16.05;;;14.50;99.90;;;;;;5002553;28;20037;-73
2022/05/19 07:58:50;;;;;;;20.48;15.85;;;14.50;99.90;;;;;;5000551;28;20096;-72
2022/05/19 08:01:16;;;;;;;21.65;16.45;;;14.50;99.90;;;;;;5005312;28;20041;-73
2022/05/19 08:03:42;;;;;;;21.48;15.82;;;14.50;99.90;;;;;;5000871;28;20113;-73
2022/05/19 08:06:10;;;;;;;23.90;18.35;;;14.50;99.90;;;;;;5000732;28;20034;-73
2022/05/19 08:08:37;;;;;;;23.30;17.58;;;14.50;99.90;;;;;;5004498;28;20026;-73
2022/05/19 08:11:03;;;;;;;26.73;20.42;;;14.50;99.90;;;;;;5006231;28;20176;-72
2022/05/19 08:16:13;;;;;;;25.05;18.60;;;14.50;99.90;;;;;;5006707;28;20033;-74
2022/05/19 08:18:39;;;;;;;24.77;19.58;;;14.50;99.90;;;;;;5004306;28;20030;-76
2022/05/19 08:21:08;;;;;;;27.73;20.20;;;14.50;99.90;;;;;;5005994;28;20038;-74
2022/05/19 08:23:37;;;;;;;28.25;20.33;;;14.50;99.90;;;;;;5004688;28;20041;-75
2022/05/19 08:26:04;;;;;;;23.40;18.55;;;14.50;99.90;;;;;;5002219;28;20041;-76
2022/05/19 08:28:31;;;;;;;23.80;17.80;;;14.60;99.90;;;;;;5004225;28;20046;-75
2022/05/19 08:31:12;;;;;;;29.65;21.13;;;14.60;99.90;;;;;;5007408;28;20058;-76
2022/05/19 08:33:39;;;;;;;17.55;14.77;;;14.70;99.90;;;;;;5006563;28;20040;-76
2022/05/19 08:36:07;;;;;;;14.02;9.65;;;14.80;99.90;;;;;;5008828;28;20121;-75
2022/05/19 08:38:33;;;;;;;17.75;11.07;;;14.80;99.90;;;;;;5010203;28;20080;-76
2022/05/19 08:41:06;;;;;;;13.88;9.98;;;14.80;99.90;;;;;;5006058;28;20033;-75
2022/05/19 08:44:01;;;;;;;12.63;7.82;;;14.90;99.90;;;;;;5005099;28;20738;-74
2022/05/19 08:46:33;;;;;;;12.43;8.60;;;14.90;99.90;;;;;;5006770;28;20057;-74
2022/05/19 08:49:12;;;;;;;9.95;7.00;;;15.00;99.90;;;;;;5007414;28;20041;-74
2022/05/19 08:52:01;;;;;;;10.05;5.47;;;15.00;99.90;;;;;;5005176;28;20025;-74
2022/05/19 08:54:27;;;;;;;7.57;5.47;;;15.10;99.90;;;;;;5006081;28;20117;-75
2022/05/19 08:56:59;;;;;;;6.43;3.85;;;15.10;99.90;;;;;;5009566;28;20448;-77
2022/05/19 08:59:30;;;;;;;7.10;4.03;;;15.10;99.90;;;;;;5008584;28;20029;-78
2022/05/19 09:02:13;;;;;;;5.07;2.70;;;15.10;99.90;;;;;;5009219;28;20034;-76
2022/05/19 09:05:00;;;;;;;5.55;2.63;;;15.10;99.90;;;;;;5007964;28;20492;-76
2022/05/19 09:07:58;;;;;;;6.00;2.47;;;15.10;99.90;;;;;;5000605;28;20528;-75
2022/05/19 09:10:51;;;;;;;5.40;2.75;;;15.10;99.90;;;;;;5008776;28;20029;-79
2022/05/19 09:14:00;;;;;;;6.88;3.20;;;15.10;99.80;;;;;;5000004;28;20117;-75
2022/05/19 09:16:27;;;;;;;7.75;4.22;;;15.00;99.90;;;;;;5000194;28;20133;-76
2022/05/19 09:19:03;;;;;;;8.70;4.70;;;15.00;99.90;;;;;;5006326;28;20050;-76
2022/05/19 09:21:29;;;;;;;7.28;4.47;;;15.00;99.90;;;;;;5010371;28;20076;-76
2022/05/19 09:23:54;;;;;;;6.53;3.80;;;15.10;99.90;;;;;;5010352;28;20069;-74
2022/05/19 09:26:32;;;;;;;7.28;4.00;;;15.20;99.90;;;;;;5008492;28;20038;-74
2022/05/19 09:29:06;;;;;;;6.60;3.40;;;15.30;99.90;;;;;;4997259;28;20461;-74
2022/05/19 09:31:45;;;;;;;6.32;3.63;;;15.30;99.90;;;;;;5006343;28;20713;-74
2022/05/19 09:34:11;;;;;;;;;;;15.40;99.80;;;;;;5009018;28;20612;-74
2022/05/19 09:36:41;;;;;;;7.13;3.55;;;15.70;99.90;;;;;;5009138;28;19909;-74
2022/05/19 09:39:14;;;;;;;6.55;3.35;;;15.80;99.60;;;;;;5008850;28;20052;-75
2022/05/19 09:41:51;;;;;;;7.88;2.92;;;16.00;98.50;;;;;;5008739;28;20062;-76
2022/05/19 09:44:34;;;;;;;6.53;2.38;;;16.20;98.60;;;;;;5006016;28;20034;-74
2022/05/19 09:47:40;;;;;;;6.32;3.05;;;16.20;96.50;;;;;;5004457;28;20083;-74
2022/05/19 09:50:08;;;;;;;5.25;2.70;;;16.40;97.60;;;;;;5003600;28;20046;-76
2022/05/19 09:52:33;;;;;;;7.47;2.70;;;16.50;97.10;;;;;;5007542;28;20022;-74
2022/05/19 09:55:04;;;;;;;6.10;2.80;;;16.70;96.80;;;;;;5008219;28;20037;-76
2022/05/19 09:57:42;;;;;;;6.75;2.70;;;17.00;97.00;;;;;;5006978;28;20365;-75
2022/05/19 10:00:30;;;;;;;4.63;2.17;;;17.10;95.30;;;;;;5005678;28;20026;-75
2022/05/19 10:02:58;;;;;;;5.90;2.73;;;17.20;95.10;;;;;;4998724;28;20061;-75
2022/05/19 10:05:33;;;;;;;6.93;2.47;;;17.30;95.80;;;;;;5005933;28;20038;-76
2022/05/19 10:08:07;;;;;;;7.13;2.38;;;17.40;95.10;;;;;;5003129;28;20092;-78
2022/05/19 10:10:47;;;;;;;6.20;2.10;;;17.40;92.90;;;;;;4990483;28;20022;-75
2022/05/19 10:13:14;;;;;;;7.65;2.65;;;17.50;93.80;;;;;;5006110;28;20531;-76
2022/05/19 10:16:02;;;;;;;5.05;1.88;;;17.40;93.40;;;;;;5006429;28;20159;-75
2022/05/19 10:18:38;;;;;;;4.95;1.80;;;17.50;94.30;;;;;;5007120;28;20081;-76
2022/05/19 10:21:34;;;;;;;3.80;1.50;;;17.50;92.00;;;;;;5008819;28;20022;-74
2022/05/19 10:24:19;;;;;;;5.72;2.40;;;17.40;93.80;;;;;;5002355;28;20045;-75
2022/05/19 10:26:52;;;;;;;5.10;1.80;;;17.60;94.20;;;;;;5022001;28;20080;-74
2022/05/19 10:32:56;;;;;;;5.30;1.80;;;17.80;92.80;;;;;;4985449;28;20072;-77
2022/05/19 10:35:22;;;;;;;6.00;1.88;;;18.50;94.00;;;;;;4970097;28;20097;-74
2022/05/19 10:38:21;;;;;;;6.38;2.22;;;18.20;91.80;;;;;;4985317;28;20058;-76
2022/05/19 10:41:13;;;;;;;6.13;2.45;;;17.90;92.60;;;;;;4980123;28;20042;-74
2022/05/19 10:43:42;;;;;;;5.82;2.33;;;17.70;93.90;;;;;;4986783;28;20579;-74
2022/05/19 10:46:13;;;;;;;5.45;2.20;;;17.80;94.90;;;;;;4968303;28;20120;-76
2022/05/19 10:48:56;;;;;;;6.18;2.30;;;17.70;93.70;;;;;;4985456;28;20030;-73
2022/05/19 10:51:44;;;;;;;4.90;2.42;;;17.60;93.30;;;;;;4984653;28;20070;-74
2022/05/19 10:54:22;;;;;;;6.35;2.30;;;17.60;93.00;;;;;;4974964;28;20049;-76
2022/05/19 10:57:06;;;;;;;6.72;2.47;;;17.50;92.30;;;;;;4978450;28;20069;-74
2022/05/19 10:59:41;;;;;;;6.93;2.10;;;17.50;93.20;;;;;;4984333;28;20073;-74
2022/05/19 11:02:24;;;;;;;5.57;2.40;;;17.70;93.80;;;;;;4975681;28;20026;-76
2022/05/19 11:05:08;;;;;;;7.03;2.58;;;18.10;91.10;;;;;;4984993;28;20125;-76
2022/05/19 11:08:01;;;;;;;5.47;1.92;;;18.50;91.30;;;;;;5005644;28;20044;-76
2022/05/19 11:11:02;;;;;;;5.10;2.00;;;18.80;89.10;;;;;;5004107;28;20048;-76
2022/05/19 11:13:42;;;;;;;6.47;2.17;;;18.70;91.20;;;;;;5005687;28;20109;-76
2022/05/19 11:16:23;;;;;;;6.43;2.30;;;18.30;88.50;;;;;;5006184;28;20061;-75
2022/05/19 11:18:57;;;;;;;6.97;2.42;;;18.10;91.40;;;;;;5007590;28;20026;-76
2022/05/19 11:21:41;;;;;;;7.45;2.25;;;18.20;91.80;;;;;;4999026;28;20135;-76
2022/05/19 11:24:14;;;;;;;8.43;3.50;;;18.20;91.80;;;;;;5008595;28;20582;-76
2022/05/19 11:26:56;;;;;;;9.13;3.17;;;18.20;90.60;;;;;;5008920;28;20496;-76
2022/05/19 11:29:40;;;;;;;7.13;2.45;;;18.40;90.20;;;;;;5003036;28;20033;-78
2022/05/19 11:32:22;;;;;;;9.32;3.55;;;18.60;90.50;;;;;;4997168;28;20044;-75
2022/05/19 11:35:15;;;;;;;9.77;3.35;;;19.20;90.20;;;;;;5000988;28;20034;-73
2022/05/19 11:37:41;;;;;;;8.27;3.17;;;18.90;85.60;;;;;;5007951;28;20061;-76
2022/05/19 11:40:18;;;;;;;9.32;3.30;;;18.60;88.30;;;;;;5004495;28;20068;-75
2022/05/19 11:42:50;;;;;;;9.45;3.50;;;18.40;88.00;;;;;;5006245;28;20120;-75
2022/05/19 11:46:02;;;;;;;10.52;3.75;;;18.30;86.60;;;;;;5005939;28;20034;-76
2022/05/19 11:55:13;;;;;;;9.65;3.60;;;19.70;82.30;;;;;;5013120;28;20471;-75
2022/05/19 11:58:10;;;;;;;12.30;3.30;;;20.20;81.90;;;;;;5010823;28;20084;-75
2022/05/19 12:00:40;;;;;;;7.40;3.00;;;19.90;78.70;;;;;;5004597;28;20029;-76
2022/05/19 12:03:22;;;;;;;8.40;2.70;;;19.60;80.90;;;;;;5007237;28;20045;-75
2022/05/19 12:06:13;;;;;;;9.48;2.90;;;19.40;80.80;;;;;;5010442;28;20034;-76
2022/05/19 12:08:52;;;;;;;8.82;2.70;;;19.20;83.70;;;;;;5006752;28;20030;-76
2022/05/19 12:11:22;;;;;;;7.80;2.75;;;19.20;85.60;;;;;;5018045;28;20027;-74
2022/05/19 12:13:51;;;;;;;7.57;3.38;;;19.40;85.90;;;;;;5009544;28;20061;-75
2022/05/19 12:16:46;;;;;;;11.27;3.35;;;19.70;82.80;;;;;;5009503;28;20033;-76
2022/05/19 12:19:31;;;;;;;8.52;3.13;;;19.80;79.10;;;;;;4999477;28;20519;-76
2022/05/19 12:21:57;;;;;;;9.02;3.33;;;19.80;80.30;;;;;;5006066;28;20831;-74
2022/05/19 12:24:53;;;;;;;7.18;3.28;;;19.90;80.40;;;;;;5009016;28;20038;-75
2022/05/19 12:27:23;;;;;;;9.40;3.88;;;19.80;80.90;;;;;;5005621;28;20045;-76
2022/05/19 12:33:21;;;;;;;10.20;3.85;;;20.00;79.50;;;;;;5008297;28;20075;-74
2022/05/19 12:35:59;;;;;;;9.15;3.85;;;20.40;79.50;;;;;;5010429;28;20037;-75
2022/05/19 12:38:33;;;;;;;9.38;3.95;;;20.30;79.70;;;;;;5007212;28;20044;-73
2022/05/19 12:41:06;;;;;;;9.82;3.70;;;20.20;78.00;;;;;;5008522;28;20025;-75
2022/05/19 12:43:44;;;;;;;10.88;4.00;;;20.10;82.00;;;;;;5009495;28;20140;-74
2022/05/19 12:46:33;;;;;;;13.43;3.60;;;20.00;80.00;;;;;;4994151;28;20121;-74
2022/05/19 12:49:18;;;;;;;11.02;3.15;;;19.90;80.60;;;;;;4991036;28;20720;-73
2022/05/19 12:51:46;;;;;;;8.35;2.42;;;20.00;81.70;;;;;;5002890;28;20037;-74
2022/05/19 12:54:12;;;;;;;8.35;2.42;;;19.90;78.20;;;;;;5008191;28;20057;-73
2022/05/19 12:56:40;;;;;;;11.18;3.03;;;20.00;77.60;;;;;;4997649;28;21036;-74
2022/05/19 12:59:31;;;;;;;9.53;2.70;;;20.00;82.60;;;;;;5001779;28;20022;-74
2022/05/19 13:02:00;;;;;;;9.00;3.17;;;20.00;75.80;;;;;;5027341;28;20275;-73
2022/05/19 13:04:26;;;;;;;8.65;3.40;;;19.90;80.40;;;;;;5010156;28;20389;-74
2022/05/19 13:07:10;;;;;;;8.52;2.67;;;19.70;75.90;;;;;;5008427;28;20491;-73
2022/05/19 13:09:37;;;;;;;8.93;2.75;;;19.70;78.50;;;;;;5008488;28;20053;-73
2022/05/19 13:12:15;;;;;;;9.05;2.80;;;19.70;79.80;;;;;;5009282;28;20562;-75
2022/05/19 13:14:47;;;;;;;8.25;3.03;;;19.60;75.90;;;;;;5003735;28;20045;-73
2022/05/19 13:17:22;;;;;;;8.77;2.72;;;19.50;79.20;;;;;;4991011;28;20503;-73
2022/05/19 13:19:48;;;;;;;9.57;2.88;;;19.60;78.00;;;;;;5003499;28;20026;-74
2022/05/19 13:22:29;;;;;;;10.50;3.00;;;19.70;79.00;;;;;;5009082;28;20037;-75